sensor_id;sensor_type;location;lat;lon;timestamp;P1;durP1;ratioP1;P2;durP2;ratioP2
74777;SDS011;63298;53.164;8.610;2022-09-24T00:01:19;18.33;;;12.00;;
74777;SDS011;63298;53.164;8.610;2022-09-24T00:03:53;17.92;;;12.18;;
74777;SDS011;63298;53.164;8.610;2022-09-24T00:06:23;20.73;;;12.77;;
74777;SDS011;63298;53.164;8.610;2022-09-24T00:08:51;16.25;;;12.25;;
74777;SDS011;63298;53.164;8.610;2022-09-24T00:11:18;16.80;;;11.88;;
74777;SDS011;63298;53.164;8.610;2022-09-24T00:13:43;17.90;;;11.75;;
74777;SDS011;63298;53.164;8.610;2022-09-24T00:16:10;19.10;;;12.13;;
74777;SDS011;63298;53.164;8.610;2022-09-24T00:18:37;14.45;;;11.45;;
74777;SDS011;63298;53.164;8.610;2022-09-24T00:23:50;17.95;;;12.73;;
74777;SDS011;63298;53.164;8.610;2022-09-24T00:26:18;15.10;;;11.38;;
74777;SDS011;63298;53.164;8.610;2022-09-24T00:28:44;16.58;;;11.10;;
74777;SDS011;63298;53.164;8.610;2022-09-24T00:31:09;16.60;;;11.60;;
74777;SDS011;63298;53.164;8.610;2022-09-24T00:33:34;19.23;;;12.07;;
74777;SDS011;63298;53.164;8.610;2022-09-24T00:36:00;14.93;;;11.40;;
74777;SDS011;63298;53.164;8.610;2022-09-24T00:38:28;17.45;;;11.32;;
74777;SDS011;63298;53.164;8.610;2022-09-24T00:40:53;18.27;;;11.82;;
74777;SDS011;63298;53.164;8.610;2022-09-24T00:43:26;17.83;;;11.38;;
74777;SDS011;63298;53.164;8.610;2022-09-24T00:45:57;17.60;;;11.10;;
74777;SDS011;63298;53.164;8.610;2022-09-24T00:48:32;16.63;;;11.38;;
74777;SDS011;63298;53.164;8.610;2022-09-24T00:50:59;15.90;;;10.45;;
74777;SDS011;63298;53.164;8.610;2022-09-24T00:53:26;13.10;;;10.50;;
74777;SDS011;63298;53.164;8.610;2022-09-24T00:55:52;15.40;;;11.02;;
74777;SDS011;63298;53.164;8.610;2022-09-24T00:58:18;15.15;;;11.15;;
74777;SDS011;63298;53.164;8.610;2022-09-24T01:00:43;15.40;;;10.88;;
74777;SDS011;63298;53.164;8.610;2022-09-24T01:03:10;15.88;;;10.68;;
74777;SDS011;63298;53.164;8.610;2022-09-24T01:05:38;16.60;;;10.20;;
74777;SDS011;63298;53.164;8.610;2022-09-24T01:08:05;17.63;;;10.97;;
74777;SDS011;63298;53.164;8.610;2022-09-24T01:10:38;15.15;;;10.32;;
74777;SDS011;63298;53.164;8.610;2022-09-24T01:13:09;13.85;;;11.02;;
74777;SDS011;63298;53.164;8.610;2022-09-24T01:15:53;14.70;;;10.30;;
74777;SDS011;63298;53.164;8.610;2022-09-24T01:19:32;11.90;;;9.52;;
74777;SDS011;63298;53.164;8.610;2022-09-24T01:27:39;15.00;;;9.57;;
74777;SDS011;63298;53.164;8.610;2022-09-24T01:30:20;13.88;;;9.65;;
74777;SDS011;63298;53.164;8.610;2022-09-24T01:32:47;13.95;;;9.80;;
74777;SDS011;63298;53.164;8.610;2022-09-24T01:35:21;15.50;;;9.98;;
74777;SDS011;63298;53.164;8.610;2022-09-24T01:37:52;15.45;;;9.70;;
74777;SDS011;63298;53.164;8.610;2022-09-24T01:40:23;16.08;;;10.63;;
74777;SDS011;63298;53.164;8.610;2022-09-24T01:42:51;16.98;;;10.07;;
74777;SDS011;63298;53.164;8.610;2022-09-24T01:45:19;14.63;;;9.60;;
74777;SDS011;63298;53.164;8.610;2022-09-24T01:47:45;12.90;;;8.90;;
74777;SDS011;63298;53.164;8.610;2022-09-24T01:50:11;14.38;;;10.38;;
74777;SDS011;63298;53.164;8.610;2022-09-24T01:52:52;17.05;;;10.30;;
74777;SDS011;63298;53.164;8.610;2022-09-24T01:55:23;17.23;;;10.55;;
74777;SDS011;63298;53.164;8.610;2022-09-24T01:57:52;14.63;;;9.70;;
74777;SDS011;63298;53.164;8.610;2022-09-24T02:00:22;18.13;;;10.52;;
74777;SDS011;63298;53.164;8.610;2022-09-24T02:05:20;18.25;;;10.93;;
74777;SDS011;63298;53.164;8.610;2022-09-24T02:07:56;15.90;;;10.68;;
74777;SDS011;63298;53.164;8.610;2022-09-24T02:10:39;15.40;;;10.43;;
74777;SDS011;63298;53.164;8.610;2022-09-24T02:13:12;18.35;;;11.02;;
74777;SDS011;63298;53.164;8.610;2022-09-24T02:15:41;15.07;;;10.55;;
74777;SDS011;63298;53.164;8.610;2022-09-24T02:18:13;14.35;;;10.98;;
74777;SDS011;63298;53.164;8.610;2022-09-24T02:20:42;18.13;;;10.63;;
74777;SDS011;63298;53.164;8.610;2022-09-24T02:23:08;15.80;;;11.25;;
74777;SDS011;63298;53.164;8.610;2022-09-24T02:25:42;16.95;;;10.38;;
74777;SDS011;63298;53.164;8.610;2022-09-24T02:28:10;15.90;;;11.25;;
74777;SDS011;63298;53.164;8.610;2022-09-24T02:30:36;18.83;;;11.37;;
74777;SDS011;63298;53.164;8.610;2022-09-24T02:33:06;17.80;;;10.75;;
74777;SDS011;63298;53.164;8.610;2022-09-24T02:35:36;14.82;;;10.30;;
74777;SDS011;63298;53.164;8.610;2022-09-24T02:38:02;16.77;;;10.95;;
74777;SDS011;63298;53.164;8.610;2022-09-24T02:40:27;17.15;;;10.55;;
74777;SDS011;63298;53.164;8.610;2022-09-24T02:42:53;14.23;;;10.48;;
74777;SDS011;63298;53.164;8.610;2022-09-24T02:45:18;13.10;;;10.07;;
74777;SDS011;63298;53.164;8.610;2022-09-24T02:47:43;16.43;;;10.03;;
74777;SDS011;63298;53.164;8.610;2022-09-24T02:50:08;16.75;;;10.13;;
74777;SDS011;63298;53.164;8.610;2022-09-24T02:52:34;12.90;;;9.70;;
74777;SDS011;63298;53.164;8.610;2022-09-24T02:54:59;13.17;;;9.30;;
74777;SDS011;63298;53.164;8.610;2022-09-24T02:57:24;16.65;;;9.45;;
74777;SDS011;63298;53.164;8.610;2022-09-24T02:59:50;15.07;;;9.32;;
74777;SDS011;63298;53.164;8.610;2022-09-24T03:02:15;15.00;;;9.40;;
74777;SDS011;63298;53.164;8.610;2022-09-24T03:04:40;14.63;;;9.13;;
74777;SDS011;63298;53.164;8.610;2022-09-24T03:07:06;13.20;;;9.50;;
74777;SDS011;63298;53.164;8.610;2022-09-24T03:09:31;12.25;;;8.38;;
74777;SDS011;63298;53.164;8.610;2022-09-24T03:11:57;15.48;;;8.82;;
74777;SDS011;63298;53.164;8.610;2022-09-24T03:14:22;12.25;;;8.40;;
74777;SDS011;63298;53.164;8.610;2022-09-24T03:16:48;13.10;;;7.93;;
74777;SDS011;63298;53.164;8.610;2022-09-24T03:19:13;15.53;;;7.67;;
74777;SDS011;63298;53.164;8.610;2022-09-24T03:21:38;11.63;;;8.50;;
74777;SDS011;63298;53.164;8.610;2022-09-24T03:24:04;12.38;;;8.23;;
74777;SDS011;63298;53.164;8.610;2022-09-24T03:26:29;14.02;;;8.02;;
74777;SDS011;63298;53.164;8.610;2022-09-24T03:28:54;13.35;;;8.43;;
74777;SDS011;63298;53.164;8.610;2022-09-24T03:31:20;13.67;;;8.60;;
74777;SDS011;63298;53.164;8.610;2022-09-24T03:33:48;10.02;;;7.55;;
74777;SDS011;63298;53.164;8.610;2022-09-24T03:36:15;11.75;;;7.90;;
74777;SDS011;63298;53.164;8.610;2022-09-24T03:38:46;15.13;;;8.88;;
74777;SDS011;63298;53.164;8.610;2022-09-24T03:41:12;11.90;;;7.90;;
74777;SDS011;63298;53.164;8.610;2022-09-24T03:43:38;13.43;;;8.13;;
74777;SDS011;63298;53.164;8.610;2022-09-24T03:46:05;11.88;;;7.93;;
74777;SDS011;63298;53.164;8.610;2022-09-24T03:48:32;14.32;;;7.43;;
74777;SDS011;63298;53.164;8.610;2022-09-24T03:51:05;14.57;;;8.18;;
74777;SDS011;63298;53.164;8.610;2022-09-24T03:53:35;9.18;;;6.93;;
74777;SDS011;63298;53.164;8.610;2022-09-24T03:56:00;9.25;;;6.85;;
74777;SDS011;63298;53.164;8.610;2022-09-24T03:58:27;15.25;;;8.50;;
74777;SDS011;63298;53.164;8.610;2022-09-24T04:03:51;13.00;;;7.93;;
74777;SDS011;63298;53.164;8.610;2022-09-24T04:06:17;11.57;;;7.88;;
74777;SDS011;63298;53.164;8.610;2022-09-24T04:08:42;15.70;;;9.35;;
74777;SDS011;63298;53.164;8.610;2022-09-24T04:11:07;11.80;;;8.37;;
74777;SDS011;63298;53.164;8.610;2022-09-24T04:13:32;11.63;;;8.40;;
74777;SDS011;63298;53.164;8.610;2022-09-24T04:16:02;15.38;;;9.30;;
74777;SDS011;63298;53.164;8.610;2022-09-24T04:18:28;13.88;;;8.65;;
74777;SDS011;63298;53.164;8.610;2022-09-24T04:21:00;12.82;;;8.40;;
74777;SDS011;63298;53.164;8.610;2022-09-24T04:23:26;14.00;;;9.75;;
74777;SDS011;63298;53.164;8.610;2022-09-24T04:25:52;14.57;;;9.75;;
74777;SDS011;63298;53.164;8.610;2022-09-24T04:28:17;15.52;;;9.10;;
74777;SDS011;63298;53.164;8.610;2022-09-24T04:30:43;16.63;;;10.77;;
74777;SDS011;63298;53.164;8.610;2022-09-24T04:33:08;16.00;;;10.45;;
74777;SDS011;63298;53.164;8.610;2022-09-24T04:35:44;15.18;;;10.90;;
74777;SDS011;63298;53.164;8.610;2022-09-24T04:38:09;18.60;;;11.70;;
74777;SDS011;63298;53.164;8.610;2022-09-24T04:40:35;19.02;;;10.90;;
74777;SDS011;63298;53.164;8.610;2022-09-24T04:43:01;17.30;;;11.68;;
74777;SDS011;63298;53.164;8.610;2022-09-24T04:45:27;16.23;;;11.30;;
74777;SDS011;63298;53.164;8.610;2022-09-24T04:47:52;20.63;;;11.93;;
74777;SDS011;63298;53.164;8.610;2022-09-24T04:50:19;22.13;;;12.20;;
74777;SDS011;63298;53.164;8.610;2022-09-24T04:52:44;17.00;;;11.35;;
74777;SDS011;63298;53.164;8.610;2022-09-24T04:59:06;20.20;;;13.30;;
74777;SDS011;63298;53.164;8.610;2022-09-24T05:01:32;20.45;;;13.20;;
74777;SDS011;63298;53.164;8.610;2022-09-24T05:03:57;17.80;;;12.55;;
74777;SDS011;63298;53.164;8.610;2022-09-24T05:06:23;22.60;;;13.43;;
74777;SDS011;63298;53.164;8.610;2022-09-24T05:08:48;21.50;;;13.43;;
74777;SDS011;63298;53.164;8.610;2022-09-24T05:11:13;26.00;;;14.85;;
74777;SDS011;63298;53.164;8.610;2022-09-24T05:13:39;24.07;;;13.90;;
74777;SDS011;63298;53.164;8.610;2022-09-24T05:16:04;21.53;;;14.73;;
74777;SDS011;63298;53.164;8.610;2022-09-24T05:18:29;23.00;;;14.45;;
74777;SDS011;63298;53.164;8.610;2022-09-24T05:20:54;31.27;;;15.57;;
74777;SDS011;63298;53.164;8.610;2022-09-24T05:23:20;27.67;;;14.17;;
74777;SDS011;63298;53.164;8.610;2022-09-24T05:25:45;23.45;;;15.15;;
74777;SDS011;63298;53.164;8.610;2022-09-24T05:28:10;22.65;;;14.32;;
74777;SDS011;63298;53.164;8.610;2022-09-24T05:30:36;29.80;;;16.00;;
74777;SDS011;63298;53.164;8.610;2022-09-24T05:33:04;25.70;;;15.27;;
74777;SDS011;63298;53.164;8.610;2022-09-24T05:35:29;28.02;;;15.13;;
74777;SDS011;63298;53.164;8.610;2022-09-24T05:37:54;27.87;;;16.50;;
74777;SDS011;63298;53.164;8.610;2022-09-24T05:40:20;24.43;;;15.90;;
74777;SDS011;63298;53.164;8.610;2022-09-24T05:42:45;24.48;;;15.48;;
74777;SDS011;63298;53.164;8.610;2022-09-24T05:45:11;28.70;;;17.20;;
74777;SDS011;63298;53.164;8.610;2022-09-24T05:47:36;30.35;;;16.45;;
74777;SDS011;63298;53.164;8.610;2022-09-24T05:50:02;27.57;;;15.87;;
74777;SDS011;63298;53.164;8.610;2022-09-24T05:52:27;29.45;;;17.33;;
74777;SDS011;63298;53.164;8.610;2022-09-24T05:54:52;27.70;;;16.27;;
74777;SDS011;63298;53.164;8.610;2022-09-24T05:57:18;28.93;;;16.73;;
74777;SDS011;63298;53.164;8.610;2022-09-24T05:59:43;27.27;;;15.25;;
74777;SDS011;63298;53.164;8.610;2022-09-24T06:02:08;26.97;;;15.63;;
74777;SDS011;63298;53.164;8.610;2022-09-24T06:04:34;28.05;;;17.20;;
74777;SDS011;63298;53.164;8.610;2022-09-24T06:06:59;29.23;;;17.37;;
74777;SDS011;63298;53.164;8.610;2022-09-24T06:09:25;27.27;;;16.43;;
74777;SDS011;63298;53.164;8.610;2022-09-24T06:11:50;25.43;;;15.23;;
74777;SDS011;63298;53.164;8.610;2022-09-24T06:14:15;26.53;;;17.73;;
74777;SDS011;63298;53.164;8.610;2022-09-24T06:16:40;28.10;;;17.30;;
74777;SDS011;63298;53.164;8.610;2022-09-24T06:19:06;24.57;;;16.13;;
74777;SDS011;63298;53.164;8.610;2022-09-24T06:21:31;28.33;;;17.20;;
74777;SDS011;63298;53.164;8.610;2022-09-24T06:23:56;32.53;;;18.50;;
74777;SDS011;63298;53.164;8.610;2022-09-24T06:26:22;26.70;;;17.27;;
74777;SDS011;63298;53.164;8.610;2022-09-24T06:28:47;30.33;;;17.50;;
74777;SDS011;63298;53.164;8.610;2022-09-24T06:31:12;30.67;;;18.40;;
74777;SDS011;63298;53.164;8.610;2022-09-24T06:33:38;25.95;;;16.77;;
74777;SDS011;63298;53.164;8.610;2022-09-24T06:36:03;27.33;;;17.10;;
74777;SDS011;63298;53.164;8.610;2022-09-24T06:38:28;27.70;;;17.17;;
74777;SDS011;63298;53.164;8.610;2022-09-24T06:41:02;28.15;;;18.10;;
74777;SDS011;63298;53.164;8.610;2022-09-24T06:43:28;26.83;;;16.30;;
74777;SDS011;63298;53.164;8.610;2022-09-24T06:45:54;30.27;;;18.20;;
74777;SDS011;63298;53.164;8.610;2022-09-24T06:48:20;28.63;;;17.25;;
74777;SDS011;63298;53.164;8.610;2022-09-24T06:50:46;28.17;;;17.65;;
74777;SDS011;63298;53.164;8.610;2022-09-24T06:53:11;27.27;;;16.35;;
74777;SDS011;63298;53.164;8.610;2022-09-24T06:55:37;29.40;;;17.75;;
74777;SDS011;63298;53.164;8.610;2022-09-24T07:00:32;29.25;;;18.75;;
74777;SDS011;63298;53.164;8.610;2022-09-24T07:02:59;29.73;;;17.83;;
74777;SDS011;63298;53.164;8.610;2022-09-24T07:05:24;31.63;;;18.33;;
74777;SDS011;63298;53.164;8.610;2022-09-24T07:07:50;29.13;;;17.40;;
74777;SDS011;63298;53.164;8.610;2022-09-24T07:10:15;30.38;;;18.20;;
74777;SDS011;63298;53.164;8.610;2022-09-24T07:12:40;34.70;;;18.88;;
74777;SDS011;63298;53.164;8.610;2022-09-24T07:15:06;34.05;;;18.92;;
74777;SDS011;63298;53.164;8.610;2022-09-24T07:17:32;31.15;;;18.13;;
74777;SDS011;63298;53.164;8.610;2022-09-24T07:19:57;29.92;;;18.83;;
74777;SDS011;63298;53.164;8.610;2022-09-24T07:22:23;34.30;;;19.90;;
74777;SDS011;63298;53.164;8.610;2022-09-24T07:24:48;33.75;;;21.02;;
74777;SDS011;63298;53.164;8.610;2022-09-24T07:27:13;31.47;;;17.70;;
74777;SDS011;63298;53.164;8.610;2022-09-24T07:29:39;35.33;;;19.55;;
74777;SDS011;63298;53.164;8.610;2022-09-24T07:32:04;34.25;;;18.65;;
74777;SDS011;63298;53.164;8.610;2022-09-24T07:34:30;33.25;;;19.17;;
74777;SDS011;63298;53.164;8.610;2022-09-24T07:36:56;31.27;;;19.20;;
74777;SDS011;63298;53.164;8.610;2022-09-24T07:39:22;32.80;;;19.10;;
74777;SDS011;63298;53.164;8.610;2022-09-24T07:44:45;32.80;;;18.90;;
74777;SDS011;63298;53.164;8.610;2022-09-24T07:47:10;34.73;;;20.70;;
74777;SDS011;63298;53.164;8.610;2022-09-24T07:49:35;36.17;;;20.07;;
74777;SDS011;63298;53.164;8.610;2022-09-24T07:52:01;31.40;;;18.57;;
74777;SDS011;63298;53.164;8.610;2022-09-24T07:54:26;35.08;;;19.70;;
74777;SDS011;63298;53.164;8.610;2022-09-24T07:56:52;37.30;;;19.20;;
74777;SDS011;63298;53.164;8.610;2022-09-24T07:59:17;30.30;;;17.97;;
74777;SDS011;63298;53.164;8.610;2022-09-24T08:01:42;32.70;;;19.37;;
74777;SDS011;63298;53.164;8.610;2022-09-24T08:04:08;33.95;;;18.75;;
74777;SDS011;63298;53.164;8.610;2022-09-24T08:06:34;32.75;;;18.80;;
74777;SDS011;63298;53.164;8.610;2022-09-24T08:09:00;33.63;;;20.40;;
74777;SDS011;63298;53.164;8.610;2022-09-24T08:11:25;32.13;;;18.42;;
74777;SDS011;63298;53.164;8.610;2022-09-24T08:13:50;30.95;;;19.60;;
74777;SDS011;63298;53.164;8.610;2022-09-24T08:16:16;34.73;;;19.37;;
74777;SDS011;63298;53.164;8.610;2022-09-24T08:18:41;36.25;;;20.65;;
74777;SDS011;63298;53.164;8.610;2022-09-24T08:21:08;32.72;;;19.63;;
74777;SDS011;63298;53.164;8.610;2022-09-24T08:23:34;32.42;;;18.52;;
74777;SDS011;63298;53.164;8.610;2022-09-24T08:26:00;30.63;;;18.65;;
74777;SDS011;63298;53.164;8.610;2022-09-24T08:28:26;32.00;;;18.58;;
74777;SDS011;63298;53.164;8.610;2022-09-24T08:30:51;28.52;;;16.92;;
74777;SDS011;63298;53.164;8.610;2022-09-24T08:33:20;32.78;;;19.10;;
74777;SDS011;63298;53.164;8.610;2022-09-24T08:35:46;28.93;;;16.87;;
74777;SDS011;63298;53.164;8.610;2022-09-24T08:38:11;32.50;;;18.30;;
74777;SDS011;63298;53.164;8.610;2022-09-24T08:46:13;29.23;;;16.75;;
74777;SDS011;63298;53.164;8.610;2022-09-24T08:48:44;25.70;;;16.25;;
74777;SDS011;63298;53.164;8.610;2022-09-24T08:51:15;30.13;;;16.33;;
74777;SDS011;63298;53.164;8.610;2022-09-24T08:56:08;25.50;;;15.83;;
74777;SDS011;63298;53.164;8.610;2022-09-24T08:58:44;24.63;;;14.95;;
74777;SDS011;63298;53.164;8.610;2022-09-24T09:01:16;27.27;;;15.13;;
74777;SDS011;63298;53.164;8.610;2022-09-24T09:03:44;22.58;;;14.82;;
74777;SDS011;63298;53.164;8.610;2022-09-24T09:12:07;19.80;;;13.95;;
74777;SDS011;63298;53.164;8.610;2022-09-24T09:15:00;21.42;;;14.35;;
74777;SDS011;63298;53.164;8.610;2022-09-24T09:17:31;24.23;;;14.40;;
74777;SDS011;63298;53.164;8.610;2022-09-24T09:19:59;21.63;;;13.95;;
74777;SDS011;63298;53.164;8.610;2022-09-24T09:22:28;19.50;;;12.63;;
74777;SDS011;63298;53.164;8.610;2022-09-24T09:25:10;21.23;;;13.45;;
74777;SDS011;63298;53.164;8.610;2022-09-24T09:30:11;19.87;;;12.70;;
74777;SDS011;63298;53.164;8.610;2022-09-24T09:38:13;17.15;;;12.10;;
74777;SDS011;63298;53.164;8.610;2022-09-24T09:43:59;19.50;;;12.45;;
74777;SDS011;63298;53.164;8.610;2022-09-24T09:46:34;20.88;;;12.45;;
74777;SDS011;63298;53.164;8.610;2022-09-24T09:49:05;20.35;;;13.05;;
74777;SDS011;63298;53.164;8.610;2022-09-24T09:51:33;23.52;;;13.15;;
74777;SDS011;63298;53.164;8.610;2022-09-24T09:54:04;21.02;;;13.13;;
74777;SDS011;63298;53.164;8.610;2022-09-24T09:56:34;25.98;;;15.40;;
74777;SDS011;63298;53.164;8.610;2022-09-24T09:59:06;24.70;;;15.02;;
74777;SDS011;63298;53.164;8.610;2022-09-24T10:01:41;23.88;;;15.43;;
74777;SDS011;63298;53.164;8.610;2022-09-24T10:07:09;23.70;;;14.13;;
74777;SDS011;63298;53.164;8.610;2022-09-24T10:09:35;25.13;;;13.88;;
74777;SDS011;63298;53.164;8.610;2022-09-24T10:12:20;23.65;;;15.35;;
74777;SDS011;63298;53.164;8.610;2022-09-24T10:17:45;29.38;;;16.15;;
74777;SDS011;63298;53.164;8.610;2022-09-24T10:22:46;25.75;;;15.02;;
74777;SDS011;63298;53.164;8.610;2022-09-24T10:25:16;24.58;;;14.48;;
74777;SDS011;63298;53.164;8.610;2022-09-24T10:27:45;24.75;;;14.27;;
74777;SDS011;63298;53.164;8.610;2022-09-24T10:30:12;28.23;;;16.10;;
74777;SDS011;63298;53.164;8.610;2022-09-24T10:32:39;27.05;;;15.75;;
74777;SDS011;63298;53.164;8.610;2022-09-24T10:37:56;29.10;;;16.30;;
74777;SDS011;63298;53.164;8.610;2022-09-24T10:40:24;26.92;;;15.38;;
74777;SDS011;63298;53.164;8.610;2022-09-24T10:45:22;23.38;;;15.57;;
74777;SDS011;63298;53.164;8.610;2022-09-24T10:53:12;20.90;;;13.45;;
74777;SDS011;63298;53.164;8.610;2022-09-24T10:55:51;25.15;;;15.57;;
74777;SDS011;63298;53.164;8.610;2022-09-24T11:04:36;26.17;;;15.52;;
74777;SDS011;63298;53.164;8.610;2022-09-24T11:13:06;28.83;;;17.63;;
74777;SDS011;63298;53.164;8.610;2022-09-24T11:48:53;26.73;;;16.33;;
74777;SDS011;63298;53.164;8.610;2022-09-24T11:51:45;25.55;;;15.90;;
74777;SDS011;63298;53.164;8.610;2022-09-24T11:59:43;22.92;;;15.23;;
74777;SDS011;63298;53.164;8.610;2022-09-24T12:04:54;30.20;;;16.40;;
74777;SDS011;63298;53.164;8.610;2022-09-24T12:07:23;21.95;;;14.60;;
74777;SDS011;63298;53.164;8.610;2022-09-24T12:10:18;27.55;;;15.90;;
74777;SDS011;63298;53.164;8.610;2022-09-24T12:12:52;24.20;;;14.95;;
74777;SDS011;63298;53.164;8.610;2022-09-24T12:15:26;25.38;;;15.73;;
74777;SDS011;63298;53.164;8.610;2022-09-24T12:18:05;22.55;;;14.18;;
74777;SDS011;63298;53.164;8.610;2022-09-24T12:20:38;26.33;;;16.42;;
74777;SDS011;63298;53.164;8.610;2022-09-24T12:23:20;27.30;;;16.45;;
74777;SDS011;63298;53.164;8.610;2022-09-24T12:25:50;26.13;;;15.95;;
74777;SDS011;63298;53.164;8.610;2022-09-24T12:28:16;26.88;;;15.05;;
74777;SDS011;63298;53.164;8.610;2022-09-24T12:30:49;23.10;;;15.20;;
74777;SDS011;63298;53.164;8.610;2022-09-24T12:33:26;23.55;;;15.23;;
74777;SDS011;63298;53.164;8.610;2022-09-24T12:36:04;25.17;;;16.00;;
74777;SDS011;63298;53.164;8.610;2022-09-24T12:38:50;24.02;;;14.50;;
74777;SDS011;63298;53.164;8.610;2022-09-24T12:41:23;25.67;;;16.10;;
74777;SDS011;63298;53.164;8.610;2022-09-24T12:44:04;27.45;;;15.55;;
74777;SDS011;63298;53.164;8.610;2022-09-24T12:46:37;21.00;;;15.02;;
74777;SDS011;63298;53.164;8.610;2022-09-24T12:51:53;25.60;;;16.95;;
74777;SDS011;63298;53.164;8.610;2022-09-24T12:54:34;28.42;;;16.77;;
74777;SDS011;63298;53.164;8.610;2022-09-24T12:57:14;23.25;;;15.10;;
74777;SDS011;63298;53.164;8.610;2022-09-24T12:59:45;25.88;;;16.52;;
74777;SDS011;63298;53.164;8.610;2022-09-24T13:02:15;27.98;;;17.02;;
74777;SDS011;63298;53.164;8.610;2022-09-24T13:07:34;24.90;;;15.57;;
74777;SDS011;63298;53.164;8.610;2022-09-24T13:10:16;27.02;;;17.00;;
74777;SDS011;63298;53.164;8.610;2022-09-24T13:12:46;25.98;;;16.40;;
74777;SDS011;63298;53.164;8.610;2022-09-24T13:15:22;27.42;;;16.83;;
74777;SDS011;63298;53.164;8.610;2022-09-24T13:17:47;28.90;;;17.98;;
74777;SDS011;63298;53.164;8.610;2022-09-24T13:20:43;27.25;;;17.20;;
74777;SDS011;63298;53.164;8.610;2022-09-24T13:26:00;27.90;;;17.17;;
74777;SDS011;63298;53.164;8.610;2022-09-24T13:28:49;26.67;;;17.02;;
74777;SDS011;63298;53.164;8.610;2022-09-24T13:33:46;27.63;;;16.98;;
74777;SDS011;63298;53.164;8.610;2022-09-24T13:38:56;29.70;;;17.00;;
74777;SDS011;63298;53.164;8.610;2022-09-24T13:44:10;29.70;;;18.17;;
74777;SDS011;63298;53.164;8.610;2022-09-24T13:46:40;28.88;;;17.33;;
74777;SDS011;63298;53.164;8.610;2022-09-24T13:49:14;24.63;;;15.85;;
74777;SDS011;63298;53.164;8.610;2022-09-24T13:51:42;25.65;;;16.38;;
74777;SDS011;63298;53.164;8.610;2022-09-24T13:54:13;22.80;;;14.57;;
74777;SDS011;63298;53.164;8.610;2022-09-24T13:56:57;23.80;;;14.88;;
74777;SDS011;63298;53.164;8.610;2022-09-24T13:59:26;27.77;;;14.82;;
74777;SDS011;63298;53.164;8.610;2022-09-24T14:01:51;22.30;;;14.60;;
74777;SDS011;63298;53.164;8.610;2022-09-24T14:04:18;22.42;;;14.93;;
74777;SDS011;63298;53.164;8.610;2022-09-24T14:06:52;25.30;;;14.30;;
74777;SDS011;63298;53.164;8.610;2022-09-24T14:11:50;22.98;;;13.65;;
74777;SDS011;63298;53.164;8.610;2022-09-24T14:14:18;25.65;;;14.07;;
74777;SDS011;63298;53.164;8.610;2022-09-24T14:16:45;21.42;;;13.98;;
74777;SDS011;63298;53.164;8.610;2022-09-24T14:19:11;23.70;;;15.00;;
74777;SDS011;63298;53.164;8.610;2022-09-24T14:21:43;21.50;;;13.98;;
74777;SDS011;63298;53.164;8.610;2022-09-24T14:24:17;20.42;;;13.68;;
74777;SDS011;63298;53.164;8.610;2022-09-24T14:26:48;23.75;;;13.85;;
74777;SDS011;63298;53.164;8.610;2022-09-24T14:29:29;23.58;;;14.80;;
74777;SDS011;63298;53.164;8.610;2022-09-24T14:32:21;26.20;;;14.75;;
74777;SDS011;63298;53.164;8.610;2022-09-24T14:34:51;22.67;;;15.00;;
74777;SDS011;63298;53.164;8.610;2022-09-24T14:37:26;22.50;;;14.30;;
74777;SDS011;63298;53.164;8.610;2022-09-24T14:40:00;19.05;;;11.75;;
74777;SDS011;63298;53.164;8.610;2022-09-24T14:42:38;22.67;;;13.38;;
74777;SDS011;63298;53.164;8.610;2022-09-24T14:45:07;22.20;;;15.02;;
74777;SDS011;63298;53.164;8.610;2022-09-24T14:47:41;24.70;;;14.70;;
74777;SDS011;63298;53.164;8.610;2022-09-24T14:50:26;25.45;;;14.50;;
74777;SDS011;63298;53.164;8.610;2022-09-24T14:53:10;20.73;;;13.63;;
74777;SDS011;63298;53.164;8.610;2022-09-24T14:55:38;20.88;;;12.85;;
74777;SDS011;63298;53.164;8.610;2022-09-24T14:58:20;22.60;;;12.85;;
74777;SDS011;63298;53.164;8.610;2022-09-24T15:00:47;20.65;;;13.52;;
74777;SDS011;63298;53.164;8.610;2022-09-24T15:03:16;19.70;;;12.75;;
74777;SDS011;63298;53.164;8.610;2022-09-24T15:05:43;18.02;;;12.77;;
74777;SDS011;63298;53.164;8.610;2022-09-24T15:08:23;21.10;;;12.32;;
74777;SDS011;63298;53.164;8.610;2022-09-24T15:10:51;20.60;;;12.55;;
74777;SDS011;63298;53.164;8.610;2022-09-24T15:13:18;17.05;;;12.35;;
74777;SDS011;63298;53.164;8.610;2022-09-24T15:15:47;18.15;;;11.38;;
74777;SDS011;63298;53.164;8.610;2022-09-24T15:18:12;20.17;;;12.90;;
74777;SDS011;63298;53.164;8.610;2022-09-24T15:20:37;18.33;;;11.53;;
74777;SDS011;63298;53.164;8.610;2022-09-24T15:23:03;19.30;;;12.32;;
74777;SDS011;63298;53.164;8.610;2022-09-24T15:25:28;20.48;;;12.00;;
74777;SDS011;63298;53.164;8.610;2022-09-24T15:27:53;18.93;;;11.93;;
74777;SDS011;63298;53.164;8.610;2022-09-24T15:30:19;18.58;;;12.13;;
74777;SDS011;63298;53.164;8.610;2022-09-24T15:32:46;21.60;;;11.27;;
74777;SDS011;63298;53.164;8.610;2022-09-24T15:35:13;20.17;;;12.00;;
74777;SDS011;63298;53.164;8.610;2022-09-24T15:37:39;17.63;;;11.30;;
74777;SDS011;63298;53.164;8.610;2022-09-24T15:40:18;16.85;;;11.00;;
74777;SDS011;63298;53.164;8.610;2022-09-24T15:45:15;18.30;;;11.27;;
74777;SDS011;63298;53.164;8.610;2022-09-24T15:47:40;19.25;;;11.57;;
74777;SDS011;63298;53.164;8.610;2022-09-24T15:50:07;16.08;;;10.73;;
74777;SDS011;63298;53.164;8.610;2022-09-24T15:52:33;19.42;;;11.52;;
74777;SDS011;63298;53.164;8.610;2022-09-24T15:55:11;18.10;;;11.07;;
74777;SDS011;63298;53.164;8.610;2022-09-24T15:57:39;17.58;;;10.38;;
74777;SDS011;63298;53.164;8.610;2022-09-24T16:00:04;17.77;;;11.37;;
74777;SDS011;63298;53.164;8.610;2022-09-24T16:02:31;20.20;;;10.63;;
74777;SDS011;63298;53.164;8.610;2022-09-24T16:04:57;18.23;;;11.63;;
74777;SDS011;63298;53.164;8.610;2022-09-24T16:07:23;19.27;;;11.38;;
74777;SDS011;63298;53.164;8.610;2022-09-24T16:09:49;16.67;;;10.48;;
74777;SDS011;63298;53.164;8.610;2022-09-24T16:12:15;15.75;;;11.15;;
74777;SDS011;63298;53.164;8.610;2022-09-24T16:14:41;17.58;;;11.13;;
74777;SDS011;63298;53.164;8.610;2022-09-24T16:17:06;16.90;;;10.50;;
74777;SDS011;63298;53.164;8.610;2022-09-24T16:19:32;17.08;;;10.20;;
74777;SDS011;63298;53.164;8.610;2022-09-24T16:21:57;9.68;;;7.13;;
74777;SDS011;63298;53.164;8.610;2022-09-24T16:24:23;8.15;;;6.10;;
74777;SDS011;63298;53.164;8.610;2022-09-24T16:26:48;8.65;;;6.65;;
74777;SDS011;63298;53.164;8.610;2022-09-24T16:29:13;12.07;;;10.38;;
74777;SDS011;63298;53.164;8.610;2022-09-24T16:31:39;7.68;;;5.38;;
74777;SDS011;63298;53.164;8.610;2022-09-24T16:34:05;9.10;;;6.60;;
74777;SDS011;63298;53.164;8.610;2022-09-24T16:36:30;9.57;;;6.72;;
74777;SDS011;63298;53.164;8.610;2022-09-24T16:38:55;7.33;;;6.43;;
74777;SDS011;63298;53.164;8.610;2022-09-24T16:41:21;8.18;;;6.38;;
74777;SDS011;63298;53.164;8.610;2022-09-24T16:43:48;3.67;;;3.20;;
74777;SDS011;63298;53.164;8.610;2022-09-24T16:46:19;2.42;;;2.20;;
74777;SDS011;63298;53.164;8.610;2022-09-24T16:48:47;2.00;;;1.88;;
74777;SDS011;63298;53.164;8.610;2022-09-24T16:51:13;4.53;;;4.07;;
74777;SDS011;63298;53.164;8.610;2022-09-24T16:53:38;10.07;;;7.40;;
74777;SDS011;63298;53.164;8.610;2022-09-24T16:58:31;2.42;;;2.15;;